sensor_id;sensor_type;location;lat;lon;timestamp;pressure;altitude;pressure_sealevel;temperature
42197;BMP280;27866;48.146;17.098;2023-05-07T00:00:55;99629.19;;;18.34
42197;BMP280;27866;48.146;17.098;2023-05-07T00:05:07;99630.78;;;18.27
42197;BMP280;27866;48.146;17.098;2023-05-07T00:09:18;99638.59;;;18.20
42197;BMP280;27866;48.146;17.098;2023-05-07T00:13:29;99648.41;;;18.18
42197;BMP280;27866;48.146;17.098;2023-05-07T00:17:46;99648.06;;;18.13
42197;BMP280;27866;48.146;17.098;2023-05-07T00:21:57;99635.91;;;18.12
42197;BMP280;27866;48.146;17.098;2023-05-07T00:26:09;99629.53;;;18.14
42197;BMP280;27866;48.146;17.098;2023-05-07T00:30:20;99626.25;;;18.13
42197;BMP280;27866;48.146;17.098;2023-05-07T00:34:31;99632.63;;;18.10
42197;BMP280;27866;48.146;17.098;2023-05-07T00:38:42;99627.03;;;18.05
42197;BMP280;27866;48.146;17.098;2023-05-07T00:42:54;99622.25;;;18.01
42197;BMP280;27866;48.146;17.098;2023-05-07T00:47:09;99627.63;;;17.99
42197;BMP280;27866;48.146;17.098;2023-05-07T00:51:20;99626.13;;;17.97
42197;BMP280;27866;48.146;17.098;2023-05-07T00:55:32;99629.06;;;17.94
42197;BMP280;27866;48.146;17.098;2023-05-07T00:59:43;99625.94;;;17.91
42197;BMP280;27866;48.146;17.098;2023-05-07T01:03:55;99632.16;;;17.90
42197;BMP280;27866;48.146;17.098;2023-05-07T01:08:06;99622.94;;;17.86
42197;BMP280;27866;48.146;17.098;2023-05-07T01:12:18;99628.19;;;17.86
42197;BMP280;27866;48.146;17.098;2023-05-07T01:16:29;99629.16;;;17.85
42197;BMP280;27866;48.146;17.098;2023-05-07T01:20:41;99639.25;;;17.80
42197;BMP280;27866;48.146;17.098;2023-05-07T01:24:53;99635.47;;;17.75
42197;BMP280;27866;48.146;17.098;2023-05-07T01:29:05;99618.91;;;17.74
42197;BMP280;27866;48.146;17.098;2023-05-07T01:33:21;99624.22;;;17.82
42197;BMP280;27866;48.146;17.098;2023-05-07T01:37:33;99628.31;;;18.01
42197;BMP280;27866;48.146;17.098;2023-05-07T01:41:45;99630.06;;;18.18
42197;BMP280;27866;48.146;17.098;2023-05-07T01:45:57;99629.16;;;18.27
42197;BMP280;27866;48.146;17.098;2023-05-07T01:50:09;99635.91;;;18.37
42197;BMP280;27866;48.146;17.098;2023-05-07T01:54:26;99638.91;;;18.42
42197;BMP280;27866;48.146;17.098;2023-05-07T01:58:41;99635.34;;;18.50
42197;BMP280;27866;48.146;17.098;2023-05-07T02:02:53;99629.63;;;18.55
42197;BMP280;27866;48.146;17.098;2023-05-07T02:07:16;99635.97;;;18.44
42197;BMP280;27866;48.146;17.098;2023-05-07T02:11:28;99636.63;;;18.46
42197;BMP280;27866;48.146;17.098;2023-05-07T02:15:39;99641.41;;;18.51
42197;BMP280;27866;48.146;17.098;2023-05-07T02:19:50;99643.72;;;18.54
42197;BMP280;27866;48.146;17.098;2023-05-07T02:24:01;99645.66;;;18.52
42197;BMP280;27866;48.146;17.098;2023-05-07T02:28:13;99644.88;;;18.51
42197;BMP280;27866;48.146;17.098;2023-05-07T02:32:36;99645.00;;;18.50
42197;BMP280;27866;48.146;17.098;2023-05-07T02:36:47;99648.81;;;18.55
42197;BMP280;27866;48.146;17.098;2023-05-07T02:41:03;99645.22;;;18.56
42197;BMP280;27866;48.146;17.098;2023-05-07T02:45:14;99643.38;;;18.49
42197;BMP280;27866;48.146;17.098;2023-05-07T02:49:26;99646.50;;;18.27
42197;BMP280;27866;48.146;17.098;2023-05-07T02:53:38;99645.06;;;18.08
42197;BMP280;27866;48.146;17.098;2023-05-07T02:57:49;99643.81;;;17.95
42197;BMP280;27866;48.146;17.098;2023-05-07T03:02:01;99652.38;;;17.80
42197;BMP280;27866;48.146;17.098;2023-05-07T03:06:12;99665.44;;;17.63
42197;BMP280;27866;48.146;17.098;2023-05-07T03:10:23;99652.66;;;17.43
42197;BMP280;27866;48.146;17.098;2023-05-07T03:14:34;99659.34;;;17.29
42197;BMP280;27866;48.146;17.098;2023-05-07T03:18:46;99657.91;;;17.17
42197;BMP280;27866;48.146;17.098;2023-05-07T03:22:57;99665.06;;;17.15
42197;BMP280;27866;48.146;17.098;2023-05-07T03:27:08;99670.63;;;17.12
42197;BMP280;27866;48.146;17.098;2023-05-07T03:31:20;99681.91;;;17.13
42197;BMP280;27866;48.146;17.098;2023-05-07T03:35:31;99679.44;;;17.11
42197;BMP280;27866;48.146;17.098;2023-05-07T03:39:42;99683.03;;;17.11
42197;BMP280;27866;48.146;17.098;2023-05-07T03:43:54;99691.41;;;17.14
42197;BMP280;27866;48.146;17.098;2023-05-07T03:48:05;99696.28;;;17.26
42197;BMP280;27866;48.146;17.098;2023-05-07T03:52:16;99695.31;;;17.27
42197;BMP280;27866;48.146;17.098;2023-05-07T03:56:33;99691.59;;;17.29
42197;BMP280;27866;48.146;17.098;2023-05-07T04:00:44;99695.72;;;17.32
42197;BMP280;27866;48.146;17.098;2023-05-07T04:05:04;99705.69;;;17.19
42197;BMP280;27866;48.146;17.098;2023-05-07T04:09:16;99703.38;;;17.16
42197;BMP280;27866;48.146;17.098;2023-05-07T04:13:27;99706.09;;;17.24
42197;BMP280;27866;48.146;17.098;2023-05-07T04:17:39;99711.91;;;17.18
42197;BMP280;27866;48.146;17.098;2023-05-07T04:21:51;99719.28;;;17.06
42197;BMP280;27866;48.146;17.098;2023-05-07T04:26:03;99729.91;;;16.95
42197;BMP280;27866;48.146;17.098;2023-05-07T04:30:20;99723.31;;;16.91
42197;BMP280;27866;48.146;17.098;2023-05-07T04:34:31;99727.75;;;16.91
42197;BMP280;27866;48.146;17.098;2023-05-07T04:38:45;99732.41;;;16.87
42197;BMP280;27866;48.146;17.098;2023-05-07T04:42:57;99734.56;;;17.01
42197;BMP280;27866;48.146;17.098;2023-05-07T04:47:08;99749.41;;;17.10
42197;BMP280;27866;48.146;17.098;2023-05-07T04:51:20;99753.78;;;17.18
42197;BMP280;27866;48.146;17.098;2023-05-07T04:55:32;99762.56;;;17.17
42197;BMP280;27866;48.146;17.098;2023-05-07T04:59:44;99782.66;;;17.26
42197;BMP280;27866;48.146;17.098;2023-05-07T05:03:56;99772.44;;;17.32
42197;BMP280;27866;48.146;17.098;2023-05-07T05:08:07;99767.00;;;17.43
42197;BMP280;27866;48.146;17.098;2023-05-07T05:12:21;99777.69;;;17.58
42197;BMP280;27866;48.146;17.098;2023-05-07T05:16:34;99787.91;;;17.78
42197;BMP280;27866;48.146;17.098;2023-05-07T05:20:45;99787.09;;;17.95
42197;BMP280;27866;48.146;17.098;2023-05-07T05:24:57;99792.47;;;18.27
42197;BMP280;27866;48.146;17.098;2023-05-07T05:29:08;99793.38;;;18.52
42197;BMP280;27866;48.146;17.098;2023-05-07T05:33:23;99787.09;;;18.45
42197;BMP280;27866;48.146;17.098;2023-05-07T05:37:35;99789.16;;;18.42
42197;BMP280;27866;48.146;17.098;2023-05-07T05:41:48;99799.22;;;18.13
42197;BMP280;27866;48.146;17.098;2023-05-07T05:46:00;99809.94;;;18.19
42197;BMP280;27866;48.146;17.098;2023-05-07T05:50:12;99809.78;;;18.37
42197;BMP280;27866;48.146;17.098;2023-05-07T05:54:23;99815.63;;;18.48
42197;BMP280;27866;48.146;17.098;2023-05-07T05:58:35;99819.25;;;18.30
42197;BMP280;27866;48.146;17.098;2023-05-07T06:02:50;99813.00;;;18.48
42197;BMP280;27866;48.146;17.098;2023-05-07T06:07:06;99807.41;;;18.60
42197;BMP280;27866;48.146;17.098;2023-05-07T06:11:18;99807.69;;;18.57
42197;BMP280;27866;48.146;17.098;2023-05-07T06:15:31;99816.06;;;18.44
42197;BMP280;27866;48.146;17.098;2023-05-07T06:19:47;99810.69;;;18.62
42197;BMP280;27866;48.146;17.098;2023-05-07T06:24:02;99814.41;;;18.77
42197;BMP280;27866;48.146;17.098;2023-05-07T06:28:13;99827.47;;;19.18
42197;BMP280;27866;48.146;17.098;2023-05-07T06:32:26;99828.41;;;19.59
42197;BMP280;27866;48.146;17.098;2023-05-07T06:36:38;99829.94;;;20.32
42197;BMP280;27866;48.146;17.098;2023-05-07T06:41:01;99833.06;;;20.67
42197;BMP280;27866;48.146;17.098;2023-05-07T06:45:12;99834.25;;;20.72
42197;BMP280;27866;48.146;17.098;2023-05-07T06:49:24;99827.69;;;21.97
42197;BMP280;27866;48.146;17.098;2023-05-07T06:53:35;99832.84;;;23.35
42197;BMP280;27866;48.146;17.098;2023-05-07T06:57:47;99826.94;;;22.10
42197;BMP280;27866;48.146;17.098;2023-05-07T07:02:00;99821.97;;;22.15
42197;BMP280;27866;48.146;17.098;2023-05-07T07:06:11;99831.84;;;22.86
42197;BMP280;27866;48.146;17.098;2023-05-07T07:10:23;99828.16;;;24.55
42197;BMP280;27866;48.146;17.098;2023-05-07T07:14:35;99835.75;;;22.90
42197;BMP280;27866;48.146;17.098;2023-05-07T07:18:47;99840.69;;;22.28
42197;BMP280;27866;48.146;17.098;2023-05-07T07:22:58;99850.78;;;21.95
42197;BMP280;27866;48.146;17.098;2023-05-07T07:27:11;99847.59;;;21.70
42197;BMP280;27866;48.146;17.098;2023-05-07T07:31:22;99854.22;;;22.76
42197;BMP280;27866;48.146;17.098;2023-05-07T07:35:35;99857.28;;;26.15
42197;BMP280;27866;48.146;17.098;2023-05-07T07:39:48;99843.72;;;29.33
42197;BMP280;27866;48.146;17.098;2023-05-07T07:43:59;99847.44;;;26.61
42197;BMP280;27866;48.146;17.098;2023-05-07T07:48:11;99856.25;;;24.97
42197;BMP280;27866;48.146;17.098;2023-05-07T07:52:23;99864.50;;;24.47
42197;BMP280;27866;48.146;17.098;2023-05-07T07:56:34;99878.91;;;23.54
42197;BMP280;27866;48.146;17.098;2023-05-07T08:00:46;99873.13;;;23.37
42197;BMP280;27866;48.146;17.098;2023-05-07T08:05:00;99869.72;;;23.65
42197;BMP280;27866;48.146;17.098;2023-05-07T08:09:11;99868.03;;;23.36
42197;BMP280;27866;48.146;17.098;2023-05-07T08:13:25;99865.13;;;25.30
42197;BMP280;27866;48.146;17.098;2023-05-07T08:17:36;99877.22;;;25.99
42197;BMP280;27866;48.146;17.098;2023-05-07T08:21:48;99882.38;;;25.73
42197;BMP280;27866;48.146;17.098;2023-05-07T08:26:01;99876.25;;;24.59
42197;BMP280;27866;48.146;17.098;2023-05-07T08:30:15;99870.91;;;24.93
42197;BMP280;27866;48.146;17.098;2023-05-07T08:34:27;99881.19;;;25.02
42197;BMP280;27866;48.146;17.098;2023-05-07T08:38:40;99863.75;;;26.45
42197;BMP280;27866;48.146;17.098;2023-05-07T08:42:56;99859.31;;;28.39
42197;BMP280;27866;48.146;17.098;2023-05-07T08:47:08;99862.66;;;26.92
42197;BMP280;27866;48.146;17.098;2023-05-07T08:51:21;99854.19;;;26.12
42197;BMP280;27866;48.146;17.098;2023-05-07T08:55:33;99864.69;;;27.28
42197;BMP280;27866;48.146;17.098;2023-05-07T08:59:44;99855.00;;;29.76
42197;BMP280;27866;48.146;17.098;2023-05-07T09:03:57;99856.22;;;30.60
42197;BMP280;27866;48.146;17.098;2023-05-07T09:08:09;99858.22;;;30.01
42197;BMP280;27866;48.146;17.098;2023-05-07T09:12:23;99857.66;;;29.76
42197;BMP280;27866;48.146;17.098;2023-05-07T09:16:34;99856.34;;;32.00
42197;BMP280;27866;48.146;17.098;2023-05-07T09:20:46;99841.94;;;34.31
42197;BMP280;27866;48.146;17.098;2023-05-07T09:24:59;99838.00;;;37.04
42197;BMP280;27866;48.146;17.098;2023-05-07T09:29:12;99840.94;;;34.36
42197;BMP280;27866;48.146;17.098;2023-05-07T09:33:27;99840.16;;;34.62
42197;BMP280;27866;48.146;17.098;2023-05-07T09:37:39;99828.91;;;35.46
42197;BMP280;27866;48.146;17.098;2023-05-07T09:41:52;99843.84;;;35.63
42197;BMP280;27866;48.146;17.098;2023-05-07T09:46:18;99830.13;;;39.68
42197;BMP280;27866;48.146;17.098;2023-05-07T09:50:44;99827.78;;;40.93
42197;BMP280;27866;48.146;17.098;2023-05-07T09:54:59;99817.78;;;43.20
42197;BMP280;27866;48.146;17.098;2023-05-07T09:59:15;99822.78;;;43.99
42197;BMP280;27866;48.146;17.098;2023-05-07T10:03:30;99820.63;;;43.37
42197;BMP280;27866;48.146;17.098;2023-05-07T10:07:48;99827.22;;;40.15
42197;BMP280;27866;48.146;17.098;2023-05-07T10:12:01;99811.53;;;37.59
42197;BMP280;27866;48.146;17.098;2023-05-07T10:16:14;99809.41;;;40.04
42197;BMP280;27866;48.146;17.098;2023-05-07T10:20:32;99790.50;;;39.44
42197;BMP280;27866;48.146;17.098;2023-05-07T10:24:45;99806.22;;;39.97
42197;BMP280;27866;48.146;17.098;2023-05-07T10:33:49;99790.72;;;42.42
42197;BMP280;27866;48.146;17.098;2023-05-07T10:38:04;99793.94;;;42.91
42197;BMP280;27866;48.146;17.098;2023-05-07T10:42:18;99784.50;;;44.20
42197;BMP280;27866;48.146;17.098;2023-05-07T10:46:35;99793.50;;;42.76
42197;BMP280;27866;48.146;17.098;2023-05-07T10:51:22;99787.56;;;44.35
42197;BMP280;27866;48.146;17.098;2023-05-07T10:55:39;99786.13;;;44.37
42197;BMP280;27866;48.146;17.098;2023-05-07T10:59:56;99780.41;;;43.72
42197;BMP280;27866;48.146;17.098;2023-05-07T11:04:16;99777.34;;;44.48
42197;BMP280;27866;48.146;17.098;2023-05-07T11:08:58;99787.81;;;44.09
42197;BMP280;27866;48.146;17.098;2023-05-07T11:13:55;99785.75;;;43.47
42197;BMP280;27866;48.146;17.098;2023-05-07T11:18:53;99775.97;;;43.33
42197;BMP280;27866;48.146;17.098;2023-05-07T11:28:15;99761.34;;;44.26
42197;BMP280;27866;48.146;17.098;2023-05-07T11:32:43;99763.25;;;43.42
42197;BMP280;27866;48.146;17.098;2023-05-07T11:36:58;99761.75;;;42.46
42197;BMP280;27866;48.146;17.098;2023-05-07T11:41:34;99765.81;;;42.35
42197;BMP280;27866;48.146;17.098;2023-05-07T11:45:47;99766.00;;;42.86
42197;BMP280;27866;48.146;17.098;2023-05-07T11:50:05;99746.59;;;42.06
42197;BMP280;27866;48.146;17.098;2023-05-07T11:54:17;99753.50;;;41.72
42197;BMP280;27866;48.146;17.098;2023-05-07T11:58:28;99766.56;;;42.96
42197;BMP280;27866;48.146;17.098;2023-05-07T12:02:39;99756.53;;;44.31
42197;BMP280;27866;48.146;17.098;2023-05-07T12:06:54;99761.66;;;43.78
42197;BMP280;27866;48.146;17.098;2023-05-07T12:11:22;99751.38;;;42.82
42197;BMP280;27866;48.146;17.098;2023-05-07T12:15:35;99761.59;;;42.16
42197;BMP280;27866;48.146;17.098;2023-05-07T12:19:47;99761.00;;;41.93
42197;BMP280;27866;48.146;17.098;2023-05-07T12:23:58;99769.47;;;41.92
42197;BMP280;27866;48.146;17.098;2023-05-07T12:28:22;99766.25;;;42.98
42197;BMP280;27866;48.146;17.098;2023-05-07T12:32:33;99759.94;;;42.54
42197;BMP280;27866;48.146;17.098;2023-05-07T12:36:48;99762.47;;;43.79
42197;BMP280;27866;48.146;17.098;2023-05-07T12:40:59;99760.13;;;43.13
42197;BMP280;27866;48.146;17.098;2023-05-07T12:45:11;99755.44;;;42.24
42197;BMP280;27866;48.146;17.098;2023-05-07T12:49:23;99756.25;;;42.59
42197;BMP280;27866;48.146;17.098;2023-05-07T12:53:40;99755.97;;;43.67
42197;BMP280;27866;48.146;17.098;2023-05-07T12:57:53;99750.59;;;43.54
42197;BMP280;27866;48.146;17.098;2023-05-07T13:02:05;99736.19;;;43.32
42197;BMP280;27866;48.146;17.098;2023-05-07T13:06:17;99733.16;;;42.09
42197;BMP280;27866;48.146;17.098;2023-05-07T13:10:28;99734.16;;;42.13
42197;BMP280;27866;48.146;17.098;2023-05-07T13:14:39;99730.72;;;42.89
42197;BMP280;27866;48.146;17.098;2023-05-07T13:18:50;99732.06;;;42.57
42197;BMP280;27866;48.146;17.098;2023-05-07T13:23:02;99728.06;;;41.24
42197;BMP280;27866;48.146;17.098;2023-05-07T13:27:15;99723.84;;;40.29
42197;BMP280;27866;48.146;17.098;2023-05-07T13:31:26;99727.47;;;40.02
42197;BMP280;27866;48.146;17.098;2023-05-07T13:35:37;99729.50;;;39.92
42197;BMP280;27866;48.146;17.098;2023-05-07T13:39:49;99729.56;;;40.28
42197;BMP280;27866;48.146;17.098;2023-05-07T13:44:00;99717.34;;;40.07
42197;BMP280;27866;48.146;17.098;2023-05-07T13:48:11;99728.84;;;39.54
42197;BMP280;27866;48.146;17.098;2023-05-07T13:52:22;99735.94;;;39.23
42197;BMP280;27866;48.146;17.098;2023-05-07T13:56:34;99722.94;;;38.55
42197;BMP280;27866;48.146;17.098;2023-05-07T14:00:45;99744.09;;;39.18
42197;BMP280;27866;48.146;17.098;2023-05-07T14:04:56;99740.25;;;38.59
42197;BMP280;27866;48.146;17.098;2023-05-07T14:09:07;99724.13;;;38.40
42197;BMP280;27866;48.146;17.098;2023-05-07T14:13:19;99732.59;;;36.37
42197;BMP280;27866;48.146;17.098;2023-05-07T14:17:30;99729.28;;;36.25
42197;BMP280;27866;48.146;17.098;2023-05-07T14:21:41;99752.69;;;35.20
42197;BMP280;27866;48.146;17.098;2023-05-07T14:25:53;99743.78;;;35.15
42197;BMP280;27866;48.146;17.098;2023-05-07T14:30:05;99736.50;;;36.05
42197;BMP280;27866;48.146;17.098;2023-05-07T14:34:17;99745.97;;;36.08
42197;BMP280;27866;48.146;17.098;2023-05-07T14:38:28;99759.59;;;35.42
42197;BMP280;27866;48.146;17.098;2023-05-07T14:42:39;99774.84;;;34.96
42197;BMP280;27866;48.146;17.098;2023-05-07T14:46:50;99775.94;;;33.61
42197;BMP280;27866;48.146;17.098;2023-05-07T14:51:01;99771.44;;;33.50
42197;BMP280;27866;48.146;17.098;2023-05-07T14:55:13;99759.63;;;33.15
42197;BMP280;27866;48.146;17.098;2023-05-07T14:59:24;99768.31;;;32.46
42197;BMP280;27866;48.146;17.098;2023-05-07T15:03:36;99781.25;;;31.73
42197;BMP280;27866;48.146;17.098;2023-05-07T15:07:47;99772.66;;;30.08
42197;BMP280;27866;48.146;17.098;2023-05-07T15:11:58;99772.81;;;29.19
42197;BMP280;27866;48.146;17.098;2023-05-07T15:16:09;99767.91;;;27.96
42197;BMP280;27866;48.146;17.098;2023-05-07T15:20:21;99773.88;;;27.18
42197;BMP280;27866;48.146;17.098;2023-05-07T15:24:32;99774.31;;;26.90
42197;BMP280;27866;48.146;17.098;2023-05-07T15:28:43;99768.56;;;26.61
42197;BMP280;27866;48.146;17.098;2023-05-07T15:32:54;99766.66;;;25.79
42197;BMP280;27866;48.146;17.098;2023-05-07T15:37:06;99781.94;;;25.38
42197;BMP280;27866;48.146;17.098;2023-05-07T15:41:17;99780.22;;;24.97
42197;BMP280;27866;48.146;17.098;2023-05-07T15:45:29;99786.22;;;24.59
42197;BMP280;27866;48.146;17.098;2023-05-07T15:49:41;99787.16;;;24.31
42197;BMP280;27866;48.146;17.098;2023-05-07T15:53:52;99778.28;;;24.04
42197;BMP280;27866;48.146;17.098;2023-05-07T15:58:03;99810.88;;;23.91
42197;BMP280;27866;48.146;17.098;2023-05-07T16:02:16;99807.59;;;23.47
42197;BMP280;27866;48.146;17.098;2023-05-07T16:06:27;99817.66;;;23.65
42197;BMP280;27866;48.146;17.098;2023-05-07T16:10:39;99819.75;;;23.41
42197;BMP280;27866;48.146;17.098;2023-05-07T16:14:50;99810.25;;;22.83
42197;BMP280;27866;48.146;17.098;2023-05-07T16:19:01;99808.63;;;22.60
42197;BMP280;27866;48.146;17.098;2023-05-07T16:23:13;99813.97;;;22.31
42197;BMP280;27866;48.146;17.098;2023-05-07T16:27:24;99806.97;;;22.16
42197;BMP280;27866;48.146;17.098;2023-05-07T16:31:35;99809.47;;;22.09
42197;BMP280;27866;48.146;17.098;2023-05-07T16:35:53;99813.75;;;21.81
42197;BMP280;27866;48.146;17.098;2023-05-07T16:40:04;99817.47;;;21.57
42197;BMP280;27866;48.146;17.098;2023-05-07T16:44:17;99818.97;;;21.51
42197;BMP280;27866;48.146;17.098;2023-05-07T16:48:28;99830.22;;;21.30
42197;BMP280;27866;48.146;17.098;2023-05-07T16:52:39;99826.91;;;21.44
42197;BMP280;27866;48.146;17.098;2023-05-07T16:56:51;99821.69;;;21.13
42197;BMP280;27866;48.146;17.098;2023-05-07T17:01:02;99827.31;;;20.87
42197;BMP280;27866;48.146;17.098;2023-05-07T17:05:13;99840.13;;;20.43
42197;BMP280;27866;48.146;17.098;2023-05-07T17:09:25;99845.22;;;20.45
42197;BMP280;27866;48.146;17.098;2023-05-07T17:13:36;99836.84;;;20.33
42197;BMP280;27866;48.146;17.098;2023-05-07T17:17:48;99846.59;;;20.01
42197;BMP280;27866;48.146;17.098;2023-05-07T17:21:59;99853.28;;;19.80
42197;BMP280;27866;48.146;17.098;2023-05-07T17:26:12;99853.63;;;19.52
42197;BMP280;27866;48.146;17.098;2023-05-07T17:30:23;99858.59;;;19.30
42197;BMP280;27866;48.146;17.098;2023-05-07T17:34:35;99862.44;;;19.19
42197;BMP280;27866;48.146;17.098;2023-05-07T17:38:46;99866.59;;;19.04
42197;BMP280;27866;48.146;17.098;2023-05-07T17:42:57;99870.69;;;18.82
42197;BMP280;27866;48.146;17.098;2023-05-07T17:47:08;99874.75;;;18.77
42197;BMP280;27866;48.146;17.098;2023-05-07T17:51:20;99890.47;;;18.26
42197;BMP280;27866;48.146;17.098;2023-05-07T17:55:31;99887.72;;;18.01
42197;BMP280;27866;48.146;17.098;2023-05-07T17:59:50;99906.78;;;17.59
42197;BMP280;27866;48.146;17.098;2023-05-07T18:04:01;99913.78;;;17.41
42197;BMP280;27866;48.146;17.098;2023-05-07T18:08:13;99911.84;;;17.34
42197;BMP280;27866;48.146;17.098;2023-05-07T18:12:24;99909.63;;;17.39
42197;BMP280;27866;48.146;17.098;2023-05-07T18:16:35;99918.53;;;17.11
42197;BMP280;27866;48.146;17.098;2023-05-07T18:20:49;99929.81;;;16.65
42197;BMP280;27866;48.146;17.098;2023-05-07T18:25:01;99937.22;;;16.42
42197;BMP280;27866;48.146;17.098;2023-05-07T18:29:13;99945.19;;;16.40
42197;BMP280;27866;48.146;17.098;2023-05-07T18:33:24;99956.72;;;16.29
42197;BMP280;27866;48.146;17.098;2023-05-07T18:37:36;99964.81;;;16.08
42197;BMP280;27866;48.146;17.098;2023-05-07T18:41:47;99967.09;;;15.92
42197;BMP280;27866;48.146;17.098;2023-05-07T18:46:00;99969.47;;;15.75
42197;BMP280;27866;48.146;17.098;2023-05-07T18:50:12;99972.66;;;15.59
42197;BMP280;27866;48.146;17.098;2023-05-07T18:54:23;99981.41;;;15.49
42197;BMP280;27866;48.146;17.098;2023-05-07T18:58:35;99983.34;;;15.47
42197;BMP280;27866;48.146;17.098;2023-05-07T19:02:46;99975.78;;;15.53
42197;BMP280;27866;48.146;17.098;2023-05-07T19:06:57;99981.72;;;15.55
42197;BMP280;27866;48.146;17.098;2023-05-07T19:11:08;99992.50;;;15.41
42197;BMP280;27866;48.146;17.098;2023-05-07T19:15:20;100000.25;;;15.32
42197;BMP280;27866;48.146;17.098;2023-05-07T19:19:33;99996.44;;;15.16
42197;BMP280;27866;48.146;17.098;2023-05-07T19:23:44;100007.88;;;15.05
42197;BMP280;27866;48.146;17.098;2023-05-07T19:27:56;100027.22;;;15.02
42197;BMP280;27866;48.146;17.098;2023-05-07T19:32:07;100029.38;;;14.97
42197;BMP280;27866;48.146;17.098;2023-05-07T19:36:19;100046.84;;;14.86
42197;BMP280;27866;48.146;17.098;2023-05-07T19:40:30;100033.56;;;14.89
42197;BMP280;27866;48.146;17.098;2023-05-07T19:44:42;100047.22;;;14.71
42197;BMP280;27866;48.146;17.098;2023-05-07T19:48:53;100043.00;;;14.60
42197;BMP280;27866;48.146;17.098;2023-05-07T19:53:05;100041.72;;;14.54
42197;BMP280;27866;48.146;17.098;2023-05-07T19:57:16;100040.56;;;14.37
42197;BMP280;27866;48.146;17.098;2023-05-07T20:01:27;100039.47;;;14.29
42197;BMP280;27866;48.146;17.098;2023-05-07T20:05:39;100036.66;;;14.21
42197;BMP280;27866;48.146;17.098;2023-05-07T20:09:50;100035.50;;;14.14
42197;BMP280;27866;48.146;17.098;2023-05-07T20:14:01;100036.53;;;14.12
42197;BMP280;27866;48.146;17.098;2023-05-07T20:18:14;100038.94;;;14.15
42197;BMP280;27866;48.146;17.098;2023-05-07T20:22:29;100043.06;;;14.06
42197;BMP280;27866;48.146;17.098;2023-05-07T20:26:41;100054.19;;;13.87
42197;BMP280;27866;48.146;17.098;2023-05-07T20:30:53;100071.81;;;13.73
42197;BMP280;27866;48.146;17.098;2023-05-07T20:35:05;100064.53;;;13.66
42197;BMP280;27866;48.146;17.098;2023-05-07T20:39:16;100077.31;;;13.58
42197;BMP280;27866;48.146;17.098;2023-05-07T20:43:28;100086.03;;;13.57
42197;BMP280;27866;48.146;17.098;2023-05-07T20:47:39;100084.94;;;13.49
42197;BMP280;27866;48.146;17.098;2023-05-07T20:51:51;100077.38;;;13.46
42197;BMP280;27866;48.146;17.098;2023-05-07T20:56:03;100088.00;;;13.43
42197;BMP280;27866;48.146;17.098;2023-05-07T21:00:15;100093.69;;;13.37
42197;BMP280;27866;48.146;17.098;2023-05-07T21:04:27;100093.31;;;13.31
42197;BMP280;27866;48.146;17.098;2023-05-07T21:08:39;100089.88;;;13.31
42197;BMP280;27866;48.146;17.098;2023-05-07T21:12:50;100081.75;;;13.35
42197;BMP280;27866;48.146;17.098;2023-05-07T21:17:02;100090.19;;;13.26
42197;BMP280;27866;48.146;17.098;2023-05-07T21:21:16;100080.25;;;13.20
42197;BMP280;27866;48.146;17.098;2023-05-07T21:25:27;100085.28;;;13.11
42197;BMP280;27866;48.146;17.098;2023-05-07T21:29:38;100107.38;;;13.06
42197;BMP280;27866;48.146;17.098;2023-05-07T21:33:49;100115.50;;;13.02
42197;BMP280;27866;48.146;17.098;2023-05-07T21:38:03;100110.81;;;12.84
42197;BMP280;27866;48.146;17.098;2023-05-07T21:42:14;100112.81;;;12.80
42197;BMP280;27866;48.146;17.098;2023-05-07T21:46:25;100111.47;;;12.75
42197;BMP280;27866;48.146;17.098;2023-05-07T21:50:36;100120.91;;;12.76
42197;BMP280;27866;48.146;17.098;2023-05-07T21:54:51;100130.00;;;12.71
42197;BMP280;27866;48.146;17.098;2023-05-07T21:59:03;100141.31;;;12.70
42197;BMP280;27866;48.146;17.098;2023-05-07T22:03:14;100143.41;;;12.65
42197;BMP280;27866;48.146;17.098;2023-05-07T22:07:26;100143.84;;;12.59
42197;BMP280;27866;48.146;17.098;2023-05-07T22:11:37;100148.63;;;12.53
42197;BMP280;27866;48.146;17.098;2023-05-07T22:15:48;100154.75;;;12.52
42197;BMP280;27866;48.146;17.098;2023-05-07T22:19:59;100146.34;;;12.48
42197;BMP280;27866;48.146;17.098;2023-05-07T22:24:11;100156.41;;;12.41
42197;BMP280;27866;48.146;17.098;2023-05-07T22:28:22;100155.16;;;12.34
42197;BMP280;27866;48.146;17.098;2023-05-07T22:32:34;100154.66;;;12.29
42197;BMP280;27866;48.146;17.098;2023-05-07T22:36:46;100157.78;;;12.22
42197;BMP280;27866;48.146;17.098;2023-05-07T22:40:58;100162.66;;;12.26
42197;BMP280;27866;48.146;17.098;2023-05-07T22:45:10;100161.66;;;12.17
42197;BMP280;27866;48.146;17.098;2023-05-07T22:49:21;100157.38;;;12.16
42197;BMP280;27866;48.146;17.098;2023-05-07T22:53:32;100166.19;;;12.13
42197;BMP280;27866;48.146;17.098;2023-05-07T22:57:43;100154.34;;;12.09
42197;BMP280;27866;48.146;17.098;2023-05-07T23:01:55;100153.13;;;12.15
42197;BMP280;27866;48.146;17.098;2023-05-07T23:06:07;100158.00;;;12.07
42197;BMP280;27866;48.146;17.098;2023-05-07T23:10:19;100164.44;;;12.02
42197;BMP280;27866;48.146;17.098;2023-05-07T23:14:30;100161.63;;;11.92
42197;BMP280;27866;48.146;17.098;2023-05-07T23:18:41;100164.75;;;11.97
42197;BMP280;27866;48.146;17.098;2023-05-07T23:22:52;100166.19;;;11.89
42197;BMP280;27866;48.146;17.098;2023-05-07T23:27:07;100165.56;;;11.86
42197;BMP280;27866;48.146;17.098;2023-05-07T23:31:18;100148.75;;;11.79
42197;BMP280;27866;48.146;17.098;2023-05-07T23:35:29;100152.06;;;11.69
42197;BMP280;27866;48.146;17.098;2023-05-07T23:39:41;100155.78;;;11.65
42197;BMP280;27866;48.146;17.098;2023-05-07T23:43:52;100151.13;;;11.58
42197;BMP280;27866;48.146;17.098;2023-05-07T23:48:03;100152.03;;;11.57
42197;BMP280;27866;48.146;17.098;2023-05-07T23:52:15;100159.88;;;11.43
42197;BMP280;27866;48.146;17.098;2023-05-07T23:56:26;100165.28;;;11.40
